createdAt,value
2023-04-16T00:04:31.587Z,9.40
2023-04-16T00:09:34.076Z,9.40
2023-04-16T00:14:36.578Z,9.40
2023-04-16T00:19:39.258Z,9.40
2023-04-16T00:24:42.256Z,9.50
2023-04-16T00:29:44.680Z,9.50
2023-04-16T00:34:47.169Z,9.60
2023-04-16T00:39:50.542Z,9.60
2023-04-16T00:44:53.027Z,9.50
2023-04-16T00:49:55.565Z,9.50
2023-04-16T00:54:59.559Z,9.60
2023-04-16T01:00:02.898Z,9.70
2023-04-16T01:05:06.139Z,9.70
2023-04-16T01:10:09.097Z,9.70
2023-04-16T01:15:11.961Z,9.80
2023-04-16T01:20:14.668Z,10.00
2023-04-16T01:25:17.248Z,10.00
2023-04-16T01:30:20.382Z,10.00
2023-04-16T01:35:43.950Z,10.00
2023-04-16T01:40:46.504Z,10.00
2023-04-16T01:45:48.946Z,9.90
2023-04-16T01:50:51.494Z,10.00
2023-04-16T01:55:53.956Z,10.00
2023-04-16T02:00:56.854Z,10.00
2023-04-16T02:05:59.459Z,10.00
2023-04-16T02:11:04.482Z,10.00
2023-04-16T02:16:07.279Z,10.00
2023-04-16T02:21:24.269Z,9.80
2023-04-16T02:26:26.835Z,9.80
2023-04-16T02:31:33.379Z,9.80
2023-04-16T02:36:36.011Z,9.80
2023-04-16T02:41:38.697Z,9.70
2023-04-16T02:46:41.758Z,9.60
2023-04-16T02:51:44.225Z,9.60
2023-04-16T02:56:46.901Z,9.60
2023-04-16T03:01:49.593Z,9.60
2023-04-16T03:06:52.186Z,9.60
2023-04-16T03:11:54.681Z,9.50
2023-04-16T03:16:57.824Z,9.50
2023-04-16T03:22:00.504Z,9.50
2023-04-16T03:27:03.175Z,9.60
2023-04-16T03:32:05.886Z,9.60
2023-04-16T03:37:12.077Z,9.70
2023-04-16T03:42:14.800Z,9.80
2023-04-16T03:47:17.472Z,10.00
2023-04-16T03:52:21.688Z,10.10
2023-04-16T03:57:24.261Z,10.00
2023-04-16T04:02:29.299Z,9.90
2023-04-16T04:07:31.902Z,9.90
2023-04-16T04:12:34.546Z,10.00
2023-04-16T04:17:37.226Z,9.90
2023-04-16T04:22:39.863Z,10.10
2023-04-16T04:27:42.402Z,10.00
2023-04-16T04:32:44.913Z,10.00
2023-04-16T04:37:48.086Z,10.10
2023-04-16T04:42:54.412Z,10.10
2023-04-16T04:47:59.007Z,10.20
2023-04-16T04:53:01.586Z,10.30
2023-04-16T04:58:05.404Z,10.10
2023-04-16T05:03:11.478Z,10.00
2023-04-16T05:08:14.141Z,10.20
2023-04-16T05:13:16.678Z,10.30
2023-04-16T05:18:19.054Z,10.10
2023-04-16T05:23:21.535Z,10.10
2023-04-16T05:28:24.077Z,10.30
2023-04-16T05:33:26.583Z,10.40
2023-04-16T05:38:29.065Z,10.40
2023-04-16T05:43:31.785Z,10.30
2023-04-16T05:48:34.279Z,10.50
2023-04-16T05:53:36.763Z,10.70
2023-04-16T05:58:39.154Z,10.90
2023-04-16T06:03:41.681Z,11.00
2023-04-16T06:08:44.260Z,11.10
2023-04-16T06:13:46.852Z,11.00
2023-04-16T06:18:49.593Z,10.90
2023-04-16T06:23:52.118Z,10.90
2023-04-16T06:28:54.573Z,10.70
2023-04-16T06:33:57.296Z,11.00
2023-04-16T06:38:59.809Z,11.20
2023-04-16T06:44:02.571Z,11.40
2023-04-16T06:49:05.718Z,11.00
2023-04-16T06:54:08.146Z,11.00
2023-04-16T06:59:11.215Z,11.20
2023-04-16T07:04:13.921Z,11.20
2023-04-16T07:09:17.892Z,11.10
2023-04-16T07:14:20.555Z,11.50
2023-04-16T07:19:23.131Z,11.70
2023-04-16T07:24:25.875Z,11.70
2023-04-16T07:29:28.376Z,11.50
2023-04-16T07:34:31.155Z,11.50
2023-04-16T07:39:33.553Z,11.30
2023-04-16T07:44:36.005Z,11.40
2023-04-16T07:49:39.042Z,11.50
2023-04-16T07:54:41.518Z,11.50
2023-04-16T07:59:44.123Z,11.60
2023-04-16T08:04:46.659Z,11.80
2023-04-16T08:09:53.268Z,12.10
2023-04-16T08:14:55.750Z,12.20
2023-04-16T08:19:58.298Z,11.90
2023-04-16T08:25:00.678Z,12.20
2023-04-16T08:30:03.611Z,12.50
2023-04-16T08:35:06.410Z,12.70
2023-04-16T08:40:09.484Z,13.00
2023-04-16T08:45:17.621Z,13.30
2023-04-16T08:50:27.139Z,13.40
2023-04-16T08:55:47.570Z,13.70
2023-04-16T09:00:50.495Z,14.00
2023-04-16T09:05:55.535Z,14.20
2023-04-16T09:10:58.425Z,14.30
2023-04-16T09:16:01.294Z,14.40
2023-04-16T09:21:04.836Z,14.20
2023-04-16T09:26:07.394Z,14.30
2023-04-16T09:31:18.352Z,14.30
2023-04-16T09:36:23.746Z,14.40
2023-04-16T09:41:28.616Z,14.50
2023-04-16T09:46:33.902Z,14.60
2023-04-16T09:51:42.334Z,14.80
2023-04-16T09:56:46.618Z,14.70
2023-04-16T10:01:50.184Z,15.20
2023-04-16T10:07:06.550Z,15.20
2023-04-16T10:12:09.756Z,15.20
2023-04-16T10:17:12.805Z,15.30
2023-04-16T10:22:16.269Z,15.40
2023-04-16T10:27:20.642Z,15.20
2023-04-16T10:32:28.499Z,15.20
2023-04-16T10:37:32.195Z,15.40
2023-04-16T10:42:34.752Z,15.60
2023-04-16T10:47:40.800Z,15.80
2023-04-16T10:52:43.438Z,16.20
2023-04-16T10:57:49.905Z,16.10
2023-04-16T11:02:54.606Z,16.40
2023-04-16T11:13:17.900Z,16.60
2023-04-16T11:18:20.601Z,16.20
2023-04-16T11:23:23.096Z,16.20
2023-04-16T11:28:35.966Z,16.10
2023-04-16T11:33:39.269Z,15.40
2023-04-16T11:38:42.937Z,15.10
2023-04-16T11:43:46.078Z,14.60
2023-04-16T11:48:53.459Z,14.30
2023-04-16T11:53:56.338Z,13.80
2023-04-16T11:59:13.674Z,13.40
2023-04-16T12:04:19.005Z,12.70
2023-04-16T12:09:26.071Z,12.30
2023-04-16T12:19:32.064Z,11.30
2023-04-16T12:24:36.999Z,10.90
2023-04-16T12:29:39.516Z,10.60
2023-04-16T12:34:51.664Z,10.60
2023-04-16T12:39:54.705Z,10.50
2023-04-16T12:44:57.153Z,10.40
2023-04-16T12:49:59.732Z,10.40
2023-04-16T12:55:03.087Z,10.30
2023-04-16T13:00:08.654Z,10.40
2023-04-16T13:05:11.375Z,10.70
2023-04-16T13:10:14.035Z,11.00
2023-04-16T13:15:16.614Z,11.30
2023-04-16T13:20:19.043Z,11.60
2023-04-16T13:25:21.546Z,12.00
2023-04-16T13:30:24.121Z,12.30
2023-04-16T13:35:27.390Z,12.60
2023-04-16T13:40:29.923Z,12.80
2023-04-16T13:45:33.032Z,13.00
2023-04-16T13:50:35.756Z,13.10
2023-04-16T13:55:39.384Z,13.10
2023-04-16T14:00:45.764Z,13.20
2023-04-16T14:05:48.409Z,13.40
2023-04-16T14:10:50.900Z,13.40
2023-04-16T14:15:56.625Z,13.60
2023-04-16T14:21:02.051Z,13.40
2023-04-16T14:26:04.758Z,13.40
2023-04-16T14:31:07.108Z,13.40
2023-04-16T14:36:10.131Z,13.30
2023-04-16T14:41:13.241Z,13.20
2023-04-16T14:46:19.251Z,13.00
2023-04-16T14:51:22.095Z,13.00
2023-04-16T14:56:24.576Z,12.90
2023-04-16T15:01:27.524Z,13.00
2023-04-16T15:06:30.170Z,13.00
2023-04-16T15:11:32.930Z,13.10
2023-04-16T15:16:35.688Z,13.10
2023-04-16T15:21:38.199Z,13.00
2023-04-16T15:26:40.822Z,12.80
2023-04-16T15:31:43.296Z,12.70
2023-04-16T15:36:45.694Z,12.80
2023-04-16T15:42:00.527Z,12.90
2023-04-16T15:47:03.826Z,12.60
2023-04-16T15:52:06.759Z,12.60
2023-04-16T15:57:09.344Z,12.80
2023-04-16T16:02:12.080Z,12.90
2023-04-16T16:07:19.963Z,13.10
2023-04-16T16:12:22.664Z,12.40
2023-04-16T16:17:26.141Z,12.00
2023-04-16T16:22:28.732Z,11.60
2023-04-16T16:27:31.238Z,11.70
2023-04-16T16:32:33.797Z,11.70
2023-04-16T16:37:36.484Z,11.50
2023-04-16T16:42:38.954Z,11.50
2023-04-16T16:47:41.591Z,11.40
2023-04-16T16:52:44.804Z,11.40
2023-04-16T16:57:47.261Z,11.30
2023-04-16T17:02:52.096Z,11.20
2023-04-16T17:07:55.682Z,11.20
2023-04-16T17:12:58.209Z,11.30
2023-04-16T17:18:00.887Z,11.30
2023-04-16T17:23:03.494Z,11.10
2023-04-16T17:28:06.111Z,11.10
2023-04-16T17:33:08.677Z,11.30
2023-04-16T17:38:11.744Z,11.40
2023-04-16T17:43:14.150Z,10.80
2023-04-16T17:48:16.753Z,10.40
2023-04-16T17:53:19.429Z,10.20
2023-04-16T17:58:22.054Z,10.20
2023-04-16T18:03:24.693Z,10.30
2023-04-16T18:08:27.722Z,10.10
2023-04-16T18:13:30.209Z,9.80
2023-04-16T18:18:32.616Z,9.70
2023-04-16T18:23:35.026Z,9.60
2023-04-16T18:28:37.519Z,9.60
2023-04-16T18:33:55.539Z,9.50
2023-04-16T18:39:01.520Z,9.50
2023-04-16T18:44:04.797Z,9.60
2023-04-16T18:49:07.284Z,10.90
2023-04-16T18:54:09.643Z,12.60
2023-04-16T18:59:12.641Z,13.00
2023-04-16T19:04:15.249Z,13.30
2023-04-16T19:09:17.874Z,13.40
2023-04-16T19:19:23.072Z,13.80
2023-04-16T19:24:25.508Z,13.20
2023-04-16T19:29:28.096Z,13.20
2023-04-16T19:34:30.980Z,13.20
2023-04-16T19:39:33.479Z,12.20
2023-04-16T19:44:36.457Z,10.80
2023-04-16T19:49:38.858Z,10.20
2023-04-16T19:54:42.130Z,9.80
2023-04-16T19:59:44.577Z,10.20
2023-04-16T20:04:48.486Z,10.50
2023-04-16T20:09:50.976Z,10.50
2023-04-16T20:14:53.767Z,10.60
2023-04-16T20:20:01.077Z,10.80
2023-04-16T20:25:03.995Z,10.70
2023-04-16T20:30:06.972Z,10.70
2023-04-16T20:35:11.593Z,10.40
2023-04-16T20:40:15.109Z,10.20
2023-04-16T20:45:18.843Z,10.20
2023-04-16T20:50:21.669Z,10.20
2023-04-16T20:55:24.493Z,10.70
2023-04-16T21:00:27.081Z,10.70
2023-04-16T21:05:30.103Z,10.70
2023-04-16T21:10:32.621Z,10.70
2023-04-16T21:15:35.446Z,10.70
2023-04-16T21:20:38.754Z,10.80
2023-04-16T21:25:41.265Z,10.80
2023-04-16T21:30:43.810Z,10.90
2023-04-16T21:35:52.130Z,10.70
2023-04-16T21:40:55.610Z,10.70
2023-04-16T21:45:59.067Z,10.60
2023-04-16T21:51:06.968Z,10.30
2023-04-16T21:56:09.589Z,10.50
2023-04-16T22:01:12.410Z,10.50
2023-04-16T22:06:17.126Z,10.70
2023-04-16T22:11:19.650Z,10.60
2023-04-16T22:16:22.135Z,10.50
2023-04-16T22:21:25.021Z,10.80
2023-04-16T22:26:27.581Z,10.70
2023-04-16T22:31:30.212Z,10.60
2023-04-16T22:36:32.774Z,10.40
2023-04-16T22:41:36.561Z,10.30
2023-04-16T22:46:39.067Z,10.20
2023-04-16T22:51:41.475Z,9.90
2023-04-16T22:56:43.879Z,9.90
2023-04-16T23:01:46.841Z,9.90
2023-04-16T23:06:49.414Z,9.80
2023-04-16T23:11:51.897Z,9.80
2023-04-16T23:16:54.587Z,9.70
2023-04-16T23:21:57.139Z,9.50
2023-04-16T23:26:59.783Z,9.60
2023-04-16T23:32:02.342Z,9.50
2023-04-16T23:37:04.818Z,9.50
2023-04-16T23:42:07.378Z,9.60
2023-04-16T23:47:09.962Z,9.90
2023-04-16T23:52:12.815Z,9.90
2023-04-16T23:57:15.636Z,9.90
